Terminal Aerodrome Forecast
Issued by NWS

Home | Current Version | Previous Version | Text Only | Print | Product List | Glossary On
Versions: 1 2 3 4 5 6 7 8 9 10 11 12 13
000
FTUS46 KHNX 020024 AAA
TAFMER
TAF AMD
KMER 020024Z 0200/0224 34008KT P6SM VCSH SCT060 BKN100
      TEMPO 0200/0201 VRB10G20KT 6SM -TSRA OVC060CB
     FM020600 VRB04KT P6SM SCT100 BKN200=

USA.gov is the U.S. government's official web portal to all federal, state and local government web resources and services.